createdAt,value
2018-07-06T00:02:28.075Z,19.00
2018-07-06T00:05:08.303Z,18.90
2018-07-06T00:07:48.750Z,18.90
2018-07-06T00:10:29.160Z,18.90
2018-07-06T00:13:09.622Z,18.90
2018-07-06T00:15:50.086Z,18.80
2018-07-06T00:18:30.576Z,18.80
2018-07-06T00:21:10.934Z,18.80
2018-07-06T00:23:51.372Z,18.70
2018-07-06T00:26:31.713Z,18.70
2018-07-06T00:31:46.386Z,18.70
2018-07-06T00:34:26.630Z,18.70
2018-07-06T00:37:06.807Z,18.70
2018-07-06T00:39:47.178Z,18.70
2018-07-06T00:42:27.824Z,18.70
2018-07-06T00:45:08.137Z,18.70
2018-07-06T00:47:48.565Z,18.70
2018-07-06T00:50:29.030Z,18.70
2018-07-06T00:53:09.416Z,18.70
2018-07-06T00:55:49.722Z,18.60
2018-07-06T00:58:30.015Z,18.60
2018-07-06T01:01:10.295Z,18.60
2018-07-06T01:03:50.622Z,18.60
2018-07-06T01:06:30.974Z,18.50
2018-07-06T01:09:11.258Z,18.50
2018-07-06T01:11:51.757Z,18.50
2018-07-06T01:14:32.153Z,18.50
2018-07-06T01:17:16.700Z,18.50
2018-07-06T01:19:57.809Z,18.50
2018-07-06T01:22:38.360Z,18.50
2018-07-06T01:25:18.778Z,18.50
2018-07-06T01:27:59.216Z,18.40
2018-07-06T01:30:39.753Z,18.40
2018-07-06T01:33:20.185Z,18.50
2018-07-06T01:36:00.637Z,18.50
2018-07-06T01:38:40.997Z,18.50
2018-07-06T01:41:21.474Z,18.50
2018-07-06T01:44:01.842Z,18.50
2018-07-06T01:46:42.230Z,18.50
2018-07-06T01:49:22.677Z,18.50
2018-07-06T01:52:03.032Z,18.50
2018-07-06T01:54:43.403Z,18.50
2018-07-06T01:57:23.677Z,18.50
2018-07-06T02:00:04.014Z,18.50
2018-07-06T02:02:44.361Z,18.60
2018-07-06T02:05:24.488Z,18.50
2018-07-06T02:08:04.815Z,18.60
2018-07-06T02:10:45.448Z,18.60
2018-07-06T02:13:25.926Z,18.50
2018-07-06T02:16:06.093Z,18.50
2018-07-06T02:18:46.461Z,18.50
2018-07-06T02:21:26.707Z,18.50
2018-07-06T02:24:06.953Z,18.50
2018-07-06T02:26:47.311Z,18.60
2018-07-06T02:29:27.741Z,18.60
2018-07-06T02:32:08.085Z,18.60
2018-07-06T02:34:48.404Z,18.50
2018-07-06T02:37:28.829Z,18.50
2018-07-06T02:40:09.469Z,18.50
2018-07-06T02:42:49.931Z,18.50
2018-07-06T02:45:30.210Z,18.50
2018-07-06T02:48:10.793Z,18.60
2018-07-06T02:50:51.333Z,18.60
2018-07-06T02:53:31.776Z,18.50
2018-07-06T02:56:12.062Z,18.50
2018-07-06T02:58:52.382Z,18.50
2018-07-06T03:01:32.667Z,18.50
2018-07-06T03:04:13.133Z,18.50
2018-07-06T03:06:53.671Z,18.50
2018-07-06T03:09:34.052Z,18.50
2018-07-06T03:14:48.698Z,18.50
2018-07-06T03:17:29.232Z,18.50
2018-07-06T03:20:09.497Z,18.40
2018-07-06T03:22:49.794Z,18.40
2018-07-06T03:25:30.526Z,18.30
2018-07-06T03:28:11.028Z,18.30
2018-07-06T03:30:51.223Z,18.20
2018-07-06T03:33:31.782Z,18.20
2018-07-06T03:36:12.228Z,18.20
2018-07-06T03:38:52.652Z,18.20
2018-07-06T03:41:32.948Z,18.20
2018-07-06T03:44:13.434Z,18.10
2018-07-06T03:46:53.888Z,18.10
2018-07-06T03:49:34.470Z,18.10
2018-07-06T03:52:14.794Z,18.10
2018-07-06T03:54:56.132Z,18.10
2018-07-06T03:57:37.356Z,18.00
2018-07-06T04:00:17.876Z,18.00
2018-07-06T04:02:58.192Z,18.10
2018-07-06T04:05:38.564Z,18.10
2018-07-06T04:08:19.118Z,18.10
2018-07-06T04:10:59.678Z,18.10
2018-07-06T04:13:39.918Z,18.20
2018-07-06T04:16:20.506Z,18.20
2018-07-06T04:19:04.662Z,18.20
2018-07-06T04:21:45.009Z,18.30
2018-07-06T04:24:25.355Z,18.30
2018-07-06T04:27:05.840Z,18.40
2018-07-06T04:29:46.369Z,18.40
2018-07-06T04:32:26.644Z,18.50
2018-07-06T04:37:41.540Z,18.60
2018-07-06T04:40:22.309Z,18.60
2018-07-06T04:43:03.049Z,18.70
2018-07-06T04:45:43.751Z,18.70
2018-07-06T04:48:24.176Z,18.60
2018-07-06T04:51:04.713Z,18.60
2018-07-06T04:53:45.066Z,18.50
2018-07-06T04:56:25.805Z,18.60
2018-07-06T04:59:06.260Z,18.60
2018-07-06T05:01:46.673Z,18.60
2018-07-06T05:07:01.147Z,18.60
2018-07-06T05:09:41.554Z,18.70
2018-07-06T05:12:22.018Z,19.00
2018-07-06T05:15:02.490Z,19.30
2018-07-06T05:17:43.044Z,19.70
2018-07-06T05:20:23.519Z,20.30
2018-07-06T05:23:03.825Z,20.80
2018-07-06T05:25:44.129Z,21.30
2018-07-06T05:28:24.587Z,21.80
2018-07-06T05:31:05.767Z,22.20
2018-07-06T05:33:46.534Z,23.00
2018-07-06T05:36:26.981Z,23.00
2018-07-06T05:39:07.378Z,23.30
2018-07-06T05:41:47.889Z,23.60
2018-07-06T05:44:28.243Z,23.50
2018-07-06T05:47:08.524Z,22.90
2018-07-06T05:49:48.853Z,22.50
2018-07-06T05:52:29.449Z,22.30
2018-07-06T05:55:09.820Z,22.20
2018-07-06T05:57:50.223Z,21.90
2018-07-06T06:00:30.548Z,21.70
2018-07-06T06:03:11.109Z,21.60
2018-07-06T06:05:51.470Z,21.30
2018-07-06T06:08:19.425Z,21.20
2018-07-06T06:10:48.509Z,21.10
2018-07-06T06:13:17.611Z,21.00
2018-07-06T06:15:46.689Z,21.00
2018-07-06T06:18:16.019Z,20.90
2018-07-06T06:20:45.050Z,20.80
2018-07-06T06:23:14.083Z,20.70
2018-07-06T06:25:43.121Z,20.70
2018-07-06T06:28:12.117Z,20.60
2018-07-06T06:30:41.333Z,20.70
2018-07-06T06:33:10.466Z,20.50
2018-07-06T06:35:39.534Z,20.60
2018-07-06T06:38:08.497Z,20.40
2018-07-06T06:40:37.511Z,20.40
2018-07-06T06:43:07.249Z,20.40
2018-07-06T06:45:36.749Z,20.40
2018-07-06T06:48:05.879Z,20.40
2018-07-06T06:50:34.888Z,20.30
2018-07-06T06:53:04.095Z,20.30
2018-07-06T06:55:33.113Z,20.40
2018-07-06T06:58:02.338Z,20.20
2018-07-06T07:00:31.429Z,20.30
2018-07-06T07:03:00.751Z,20.30
2018-07-06T07:05:29.996Z,20.30
2018-07-06T07:07:59.092Z,20.30
2018-07-06T07:10:28.388Z,20.30
2018-07-06T07:12:57.360Z,20.20
2018-07-06T07:15:26.400Z,20.20
2018-07-06T07:17:55.429Z,20.20
2018-07-06T07:20:24.409Z,20.20
2018-07-06T07:22:53.418Z,20.20
2018-07-06T07:25:22.441Z,20.20
2018-07-06T07:27:51.676Z,20.30
2018-07-06T07:30:20.753Z,20.30
2018-07-06T07:32:49.908Z,20.40
2018-07-06T07:35:18.927Z,20.40
2018-07-06T07:37:47.952Z,20.50
2018-07-06T07:40:16.980Z,20.70
2018-07-06T07:42:46.255Z,20.70
2018-07-06T07:45:15.229Z,20.70
2018-07-06T07:47:44.304Z,20.80
2018-07-06T07:50:13.313Z,20.90
2018-07-06T07:52:53.651Z,20.90
2018-07-06T07:55:22.693Z,20.90
2018-07-06T08:00:20.566Z,21.10
2018-07-06T08:02:49.553Z,21.10
2018-07-06T08:05:18.617Z,21.30
2018-07-06T08:07:48.268Z,21.20
2018-07-06T08:10:17.380Z,21.20
2018-07-06T08:12:46.414Z,21.30
2018-07-06T08:15:15.392Z,21.40
2018-07-06T08:17:44.398Z,21.40
2018-07-06T08:20:13.375Z,21.50
2018-07-06T08:22:42.362Z,21.50
2018-07-06T08:25:11.330Z,21.60
2018-07-06T08:27:40.338Z,21.50
2018-07-06T08:32:38.119Z,21.70
2018-07-06T08:35:18.462Z,21.60
2018-07-06T08:37:56.090Z,21.60
2018-07-06T08:40:26.109Z,21.70
2018-07-06T08:42:56.490Z,21.80
2018-07-06T08:45:25.838Z,21.90
2018-07-06T08:47:55.026Z,22.00
2018-07-06T08:50:24.148Z,22.10
2018-07-06T08:52:53.939Z,22.10
2018-07-06T08:55:23.264Z,22.30
2018-07-06T08:57:53.660Z,22.40
2018-07-06T09:00:22.652Z,22.40
2018-07-06T09:02:51.678Z,22.40
2018-07-06T09:05:20.738Z,22.50
2018-07-06T09:07:49.848Z,22.50
2018-07-06T09:10:18.857Z,22.60
2018-07-06T09:12:47.865Z,22.70
2018-07-06T09:15:16.867Z,22.60
2018-07-06T09:17:45.928Z,22.70
2018-07-06T09:20:14.982Z,22.70
2018-07-06T09:22:44.082Z,22.80
2018-07-06T09:25:13.179Z,22.80
2018-07-06T09:27:42.611Z,22.90
2018-07-06T09:30:11.563Z,22.90
2018-07-06T09:32:40.561Z,22.90
2018-07-06T09:35:09.605Z,23.00
2018-07-06T09:37:38.682Z,23.10
2018-07-06T09:40:08.157Z,23.10
2018-07-06T09:42:37.142Z,23.20
2018-07-06T09:45:06.309Z,23.30
2018-07-06T09:47:35.509Z,23.40
2018-07-06T09:50:04.597Z,23.50
2018-07-06T09:52:33.617Z,23.60
2018-07-06T09:55:03.509Z,23.70
2018-07-06T09:57:32.486Z,23.80
2018-07-06T10:00:01.538Z,23.80
2018-07-06T10:02:30.557Z,23.90
2018-07-06T10:04:59.661Z,23.90
2018-07-06T10:07:28.681Z,24.00
2018-07-06T10:09:57.717Z,24.20
2018-07-06T10:12:26.690Z,24.10
2018-07-06T10:14:55.705Z,24.20
2018-07-06T10:17:24.789Z,24.20
2018-07-06T10:22:22.535Z,24.30
2018-07-06T10:24:51.551Z,24.30
2018-07-06T10:27:20.603Z,24.40
2018-07-06T10:30:02.144Z,24.50
2018-07-06T10:32:31.266Z,24.50
2018-07-06T10:35:00.773Z,24.50
2018-07-06T10:37:30.295Z,24.60
2018-07-06T10:39:59.526Z,24.50
2018-07-06T10:42:28.483Z,24.60
2018-07-06T10:44:57.586Z,24.60
2018-07-06T10:47:26.608Z,24.70
2018-07-06T10:49:55.650Z,24.60
2018-07-06T10:52:24.677Z,24.70
2018-07-06T10:54:53.653Z,24.70
2018-07-06T10:57:22.751Z,24.80
2018-07-06T10:59:51.766Z,24.80
2018-07-06T11:02:20.796Z,24.80
2018-07-06T11:04:49.902Z,24.90
2018-07-06T11:07:18.937Z,25.00
2018-07-06T11:09:47.996Z,25.10
2018-07-06T11:14:45.731Z,25.30
2018-07-06T11:17:14.768Z,25.30
2018-07-06T11:19:43.797Z,25.30
2018-07-06T11:22:13.198Z,25.30
2018-07-06T11:24:42.204Z,25.30
2018-07-06T11:27:11.286Z,25.40
2018-07-06T11:29:40.362Z,25.60
2018-07-06T11:32:09.392Z,25.60
2018-07-06T11:34:38.358Z,25.70
2018-07-06T11:37:07.414Z,25.90
2018-07-06T11:39:36.490Z,26.00
2018-07-06T11:42:05.621Z,26.20
2018-07-06T11:44:34.750Z,26.20
2018-07-06T11:47:03.784Z,26.30
2018-07-06T11:49:33.161Z,26.40
2018-07-06T11:52:02.179Z,26.20
2018-07-06T11:54:31.270Z,26.20
2018-07-06T11:57:00.932Z,26.20
2018-07-06T11:59:30.214Z,26.40
2018-07-06T12:01:59.202Z,26.40
2018-07-06T12:04:28.277Z,26.50
2018-07-06T12:06:57.328Z,26.60
2018-07-06T12:09:26.371Z,26.60
2018-07-06T12:11:55.380Z,26.70
2018-07-06T12:14:24.748Z,26.80
2018-07-06T12:16:53.764Z,26.80
2018-07-06T12:19:22.985Z,26.90
2018-07-06T12:21:52.051Z,26.90
2018-07-06T12:24:21.074Z,26.80
2018-07-06T12:29:18.724Z,26.90
2018-07-06T12:31:47.760Z,26.80
2018-07-06T12:34:16.797Z,27.00
2018-07-06T12:36:45.810Z,27.20
2018-07-06T12:39:14.882Z,27.30
2018-07-06T12:41:43.873Z,27.50
2018-07-06T12:44:13.127Z,27.60
2018-07-06T12:46:42.162Z,27.70
2018-07-06T12:49:11.133Z,27.70
2018-07-06T12:51:40.185Z,27.80
2018-07-06T12:54:09.237Z,27.80
2018-07-06T12:56:38.292Z,27.90
2018-07-06T13:01:36.257Z,27.80
2018-07-06T13:04:05.407Z,27.60
2018-07-06T13:06:34.413Z,27.70
2018-07-06T13:09:03.985Z,27.70
2018-07-06T13:11:33.010Z,27.80
2018-07-06T13:14:02.961Z,27.90
2018-07-06T13:16:31.949Z,28.00
2018-07-06T13:19:00.961Z,28.00
2018-07-06T13:21:29.995Z,28.10
2018-07-06T13:23:59.050Z,28.10
2018-07-06T13:26:28.141Z,28.10
2018-07-06T13:28:57.779Z,28.10
2018-07-06T13:31:26.825Z,28.10
2018-07-06T13:33:55.892Z,28.30
2018-07-06T13:36:24.853Z,28.40
2018-07-06T13:38:53.867Z,28.50
2018-07-06T13:41:23.563Z,28.60
2018-07-06T13:43:52.541Z,28.70
2018-07-06T13:46:21.530Z,28.80
2018-07-06T13:48:50.481Z,28.90
2018-07-06T13:51:19.502Z,29.10
2018-07-06T13:53:48.445Z,29.30
2018-07-06T13:56:17.401Z,29.40
2018-07-06T13:58:46.433Z,29.10
2018-07-06T14:01:15.520Z,29.30
2018-07-06T14:03:44.485Z,29.30
2018-07-06T14:06:13.512Z,29.40
2018-07-06T14:08:42.569Z,29.60
2018-07-06T14:11:11.680Z,29.70
2018-07-06T14:13:40.798Z,29.50
2018-07-06T14:16:09.804Z,29.50
2018-07-06T14:18:38.790Z,29.60
2018-07-06T14:21:07.806Z,29.40
2018-07-06T14:23:36.807Z,29.40
2018-07-06T14:26:06.436Z,29.50
2018-07-06T14:28:35.476Z,29.60
2018-07-06T14:31:04.488Z,29.50
2018-07-06T14:33:33.496Z,29.50
2018-07-06T14:36:02.532Z,29.30
2018-07-06T14:38:31.524Z,29.20
2018-07-06T14:41:00.595Z,29.20
2018-07-06T14:43:29.866Z,29.20
2018-07-06T14:45:58.883Z,29.30
2018-07-06T14:48:27.898Z,29.30
2018-07-06T14:50:56.882Z,29.20
2018-07-06T14:53:25.925Z,29.30
2018-07-06T14:55:54.894Z,29.50
2018-07-06T15:00:53.390Z,29.30
2018-07-06T15:03:22.498Z,29.40
2018-07-06T15:05:51.472Z,29.50
2018-07-06T15:08:20.462Z,29.50
2018-07-06T15:10:49.696Z,29.60
2018-07-06T15:13:18.829Z,29.50
2018-07-06T15:15:47.986Z,29.40
2018-07-06T15:18:17.042Z,29.40
2018-07-06T15:20:46.044Z,29.40
2018-07-06T15:23:15.033Z,29.50
2018-07-06T15:25:43.992Z,29.40
2018-07-06T15:28:13.054Z,29.40
2018-07-06T15:30:42.152Z,29.50
2018-07-06T15:33:11.150Z,29.60
2018-07-06T15:35:40.158Z,29.50
2018-07-06T15:38:09.759Z,29.60
2018-07-06T15:40:38.784Z,29.60
2018-07-06T15:43:07.836Z,29.60
2018-07-06T15:45:40.662Z,29.60
2018-07-06T15:48:09.813Z,29.50
2018-07-06T15:50:38.910Z,29.40
2018-07-06T15:53:07.974Z,29.60
2018-07-06T15:55:37.002Z,29.50
2018-07-06T15:58:06.299Z,29.60
2018-07-06T16:00:35.398Z,29.40
2018-07-06T16:03:04.390Z,29.40
2018-07-06T16:05:33.398Z,29.60
2018-07-06T16:08:02.478Z,29.70
2018-07-06T16:10:31.579Z,29.60
2018-07-06T16:13:00.577Z,29.60
2018-07-06T16:15:29.532Z,29.60
2018-07-06T16:17:58.511Z,29.50
2018-07-06T16:20:27.476Z,29.40
2018-07-06T16:22:56.466Z,29.40
2018-07-06T16:25:25.435Z,29.40
2018-07-06T16:27:54.509Z,29.50
2018-07-06T16:30:23.545Z,29.50
2018-07-06T16:32:52.567Z,29.50
2018-07-06T16:35:21.561Z,29.60
2018-07-06T16:37:50.669Z,29.70
2018-07-06T16:40:19.717Z,29.70
2018-07-06T16:42:48.756Z,29.80
2018-07-06T16:45:17.782Z,29.80
2018-07-06T16:47:46.843Z,29.80
2018-07-06T16:50:15.851Z,29.70
2018-07-06T16:55:13.594Z,29.60
2018-07-06T16:57:42.563Z,29.60
2018-07-06T17:00:11.552Z,29.50
2018-07-06T17:02:40.740Z,29.60
2018-07-06T17:05:09.837Z,29.50
2018-07-06T17:07:38.940Z,29.40
2018-07-06T17:10:08.237Z,29.40
2018-07-06T17:12:37.351Z,29.30
2018-07-06T17:15:06.391Z,29.30
2018-07-06T17:17:35.357Z,29.30
2018-07-06T17:20:04.373Z,29.30
2018-07-06T17:22:33.421Z,29.20
2018-07-06T17:25:02.501Z,29.30
2018-07-06T17:27:31.562Z,29.20
2018-07-06T17:30:00.593Z,29.20
2018-07-06T17:32:29.643Z,29.20
2018-07-06T17:34:58.699Z,29.20
2018-07-06T17:37:28.393Z,29.00
2018-07-06T17:39:57.587Z,28.90
2018-07-06T17:42:26.664Z,28.90
2018-07-06T17:44:55.722Z,28.80
2018-07-06T17:47:24.712Z,28.70
2018-07-06T17:49:53.725Z,28.60
2018-07-06T17:52:22.780Z,28.50
2018-07-06T17:54:52.079Z,28.50
2018-07-06T17:57:21.174Z,28.40
2018-07-06T17:59:50.278Z,28.30
2018-07-06T18:02:19.256Z,28.30
2018-07-06T18:04:48.274Z,28.30
2018-07-06T18:07:17.332Z,28.30
2018-07-06T18:09:46.308Z,28.30
2018-07-06T18:12:15.324Z,28.30
2018-07-06T18:14:44.414Z,28.30
2018-07-06T18:17:13.879Z,28.30
2018-07-06T18:19:43.198Z,28.20
2018-07-06T18:22:12.212Z,28.30
2018-07-06T18:24:41.257Z,28.30
2018-07-06T18:27:10.221Z,28.20
2018-07-06T18:29:39.256Z,28.20
2018-07-06T18:32:08.301Z,28.20
2018-07-06T18:34:37.307Z,28.20
2018-07-06T18:37:06.326Z,28.20
2018-07-06T18:39:35.477Z,28.10
2018-07-06T18:42:04.480Z,28.00
2018-07-06T18:44:33.513Z,28.10
2018-07-06T18:47:02.520Z,28.00
2018-07-06T18:49:31.613Z,28.00
2018-07-06T18:52:00.625Z,28.00
2018-07-06T18:54:29.641Z,28.00
2018-07-06T18:56:58.688Z,28.00
2018-07-06T18:59:27.698Z,28.00
2018-07-06T19:01:56.746Z,28.00
2018-07-06T19:04:25.821Z,27.90
2018-07-06T19:06:54.975Z,27.90
2018-07-06T19:09:23.987Z,27.90
2018-07-06T19:11:53.005Z,27.80
2018-07-06T19:14:22.111Z,27.80
2018-07-06T19:16:51.611Z,27.80
2018-07-06T19:19:20.629Z,27.70
2018-07-06T19:24:19.301Z,27.60
2018-07-06T19:26:48.287Z,27.50
2018-07-06T19:29:17.889Z,27.40
2018-07-06T19:31:46.892Z,27.30
2018-07-06T19:34:16.001Z,27.20
2018-07-06T19:36:47.030Z,27.10
2018-07-06T19:39:16.163Z,27.10
2018-07-06T19:41:45.145Z,27.00
2018-07-06T19:44:14.215Z,26.90
2018-07-06T19:46:43.393Z,26.80
2018-07-06T19:49:12.435Z,26.80
2018-07-06T19:51:41.461Z,26.80
2018-07-06T19:56:45.839Z,26.60
2018-07-06T19:59:14.797Z,26.60
2018-07-06T20:01:43.823Z,26.50
2018-07-06T20:04:12.881Z,26.40
2018-07-06T20:06:41.913Z,26.40
2018-07-06T20:09:11.125Z,26.30
2018-07-06T20:11:40.110Z,26.30
2018-07-06T20:14:09.100Z,26.20
2018-07-06T20:16:38.196Z,26.10
2018-07-06T20:19:07.288Z,25.90
2018-07-06T20:21:36.287Z,25.90
2018-07-06T20:24:05.349Z,25.90
2018-07-06T20:26:34.372Z,25.80
2018-07-06T20:29:03.395Z,25.70
2018-07-06T20:31:32.639Z,25.70
2018-07-06T20:34:01.703Z,25.60
2018-07-06T20:36:30.878Z,25.60
2018-07-06T20:38:59.923Z,25.60
2018-07-06T20:41:28.878Z,25.50
2018-07-06T20:43:57.943Z,25.50
2018-07-06T20:46:27.098Z,25.40
2018-07-06T20:48:56.235Z,25.40
2018-07-06T20:51:25.225Z,25.40
2018-07-06T20:53:54.354Z,25.30
2018-07-06T20:56:23.416Z,25.30
2018-07-06T20:58:52.561Z,25.30
2018-07-06T21:01:21.621Z,25.20
2018-07-06T21:03:50.705Z,25.10
2018-07-06T21:06:19.725Z,25.10
2018-07-06T21:08:48.733Z,25.10
2018-07-06T21:11:17.819Z,25.00
2018-07-06T21:13:46.883Z,25.00
2018-07-06T21:16:15.875Z,25.00
2018-07-06T21:18:44.882Z,25.00
2018-07-06T21:21:13.883Z,25.00
2018-07-06T21:23:42.881Z,25.00
2018-07-06T21:26:11.894Z,25.00
2018-07-06T21:28:40.953Z,25.00
2018-07-06T21:31:09.940Z,25.00
2018-07-06T21:33:38.944Z,24.90
2018-07-06T21:36:07.999Z,24.90
2018-07-06T21:38:36.994Z,24.90
2018-07-06T21:43:34.667Z,24.80
2018-07-06T21:46:03.692Z,24.80
2018-07-06T21:48:32.676Z,24.80
2018-07-06T21:51:01.683Z,24.80
2018-07-06T21:53:30.694Z,24.70
2018-07-06T21:55:59.718Z,24.70
2018-07-06T21:58:28.730Z,24.70
2018-07-06T22:00:57.760Z,24.70
2018-07-06T22:03:26.790Z,24.60
2018-07-06T22:05:55.874Z,24.60
2018-07-06T22:08:24.843Z,24.50
2018-07-06T22:10:53.836Z,24.50
2018-07-06T22:13:22.858Z,24.30
2018-07-06T22:15:51.934Z,24.30
2018-07-06T22:18:21.016Z,24.20
2018-07-06T22:20:50.092Z,24.20
2018-07-06T22:23:19.073Z,24.10
2018-07-06T22:25:48.072Z,24.00
2018-07-06T22:28:17.113Z,23.90
2018-07-06T22:30:46.093Z,23.90
2018-07-06T22:33:15.078Z,23.80
2018-07-06T22:35:44.069Z,23.80
2018-07-06T22:38:13.065Z,23.70
2018-07-06T22:40:43.593Z,23.70
2018-07-06T22:43:13.029Z,23.60
2018-07-06T22:45:42.017Z,23.60
2018-07-06T22:48:11.013Z,23.50
2018-07-06T22:50:40.080Z,23.50
2018-07-06T22:53:09.039Z,23.40
2018-07-06T22:55:38.008Z,23.30
2018-07-06T22:58:07.009Z,23.30
2018-07-06T23:00:36.018Z,23.20
2018-07-06T23:03:05.827Z,23.20
2018-07-06T23:05:34.917Z,23.10
2018-07-06T23:08:03.893Z,23.10
2018-07-06T23:10:32.905Z,23.00
2018-07-06T23:13:01.903Z,22.90
2018-07-06T23:15:30.897Z,22.90
2018-07-06T23:17:59.929Z,22.90
2018-07-06T23:20:28.893Z,22.80
2018-07-06T23:23:16.698Z,22.70
2018-07-06T23:25:46.897Z,22.70
2018-07-06T23:28:16.072Z,22.60
2018-07-06T23:30:45.104Z,22.50
2018-07-06T23:33:14.240Z,22.50
2018-07-06T23:35:43.259Z,22.40
2018-07-06T23:38:12.378Z,22.40
2018-07-06T23:40:41.237Z,22.40
2018-07-06T23:43:10.352Z,22.30
2018-07-06T23:45:39.308Z,22.30
2018-07-06T23:50:36.944Z,22.20
2018-07-06T23:53:06.003Z,22.20
2018-07-06T23:55:35.018Z,22.10
2018-07-06T23:58:04.112Z,22.10
